Sidney Municipal-Lloyd W Carr Field Sidney US
ICAO: KSNY
IATA: SNY
Category: Medium
Scheduled Services: No

Elevation: 4313 ft
TransAlt. 18000 ft.

Airport Communications:
ASOS:118.025
DENVER CNTR:118.475
COLUMBUS RDO:122.45
CTAF/UNICOM:122.8

KSNY Zoom In..

If you have problems with the map follow the link
https://www.worldairports.se/pages/airport.php?
ICAO=KSNY

Runways:

(A) RW 03 length 4700 ft width 75 ft
---- / hdg 25

(B) RW 13 length 6600 ft width 100 ft
---- / hdg 124

(C) RW 21 length 4700 ft width 75 ft
---- / hdg 205

(D) RW 31 length 6600 ft width 100 ft
---- / hdg 304

Location; KSNY
Day. 22 / Time. 16.53 Zulu
* Altimeter: 29.80
* Temperature: 07° c. 44.6°f.
* Wind from: 320° Speed 20 kn with Gusts up to 32 kn.
Dewpoint: -05° c.
Visibility: 10 Statute Miles.
Clouds: Clear (automated report).

KSNY 221653Z AUTO 32020G32KT 10SM CLR 07/M05 A2980 RMK AO2 PK WND 32034/1632 SLP095 T00671050


Wind From 320°
Speed 20 kn.

 
 
jpsmedia worldairports.se 2020   terms of use